Terminal Aerodrome Forecast
Issued by NWS Cleveland, OH

Home | Current Version | Previous Version | Graphics & Text | Print | Product List | Glossary On
Versions: 1 2 3 4 5 6 7 8 9 10 11 12 13
000
FTUS41 KCLE 241100
TAFYNG
TAF
KYNG 241128Z 2412/2512 27004KT P6SM FEW040
     FM241600 30012KT P6SM SCT050
     FM250200 02003KT P6SM BKN200=

USA.gov is the U.S. government's official web portal to all federal, state and local government web resources and services.